Time;durP1;ratioP1;P1;durP2;ratioP2;P2;SDS_P1;SDS_P2;PMS_P1;PMS_P2;Temp;Humidity;BMP_temperature;BMP_pressure;BME280_temperature;BME280_humidity;BME280_pressure;Samples;Min_cycle;Max_cycle;Signal;HPM_P1;HPM_P2
2023/12/26 00:01:11;;;;;;;1.17;0.52;;;;;;;;;;4970318;28;20026;-67
2023/12/26 00:03:36;;;;;;;1.95;0.40;;;;;;;;;;4971675;28;20023;-67
2023/12/26 00:06:01;;;;;;;2.40;0.60;;;;;;;;;;4968896;28;20034;-67
2023/12/26 00:08:27;;;;;;;0.30;0.20;;;;;;;;;;4978867;28;20308;-67
2023/12/26 00:10:52;;;;;;;1.37;0.23;;;;;;;;;;4974729;28;20286;-68
2023/12/26 00:13:17;;;;;;;2.45;0.95;;;;;;;;;;4974325;28;20297;-67
2023/12/26 00:15:42;;;;;;;1.97;0.60;;;;;;;;;;4968968;28;20062;-69
2023/12/26 00:18:07;;;;;;;0.95;0.50;;;;;;;;;;4977746;28;20019;-67
2023/12/26 00:20:33;;;;;;;3.37;0.60;;;;;;;;;;4968847;28;20058;-67
2023/12/26 00:22:58;;;;;;;0.40;0.20;;;;;;;;;;4967096;28;20628;-67
2023/12/26 00:25:23;;;;;;;0.13;0.13;;;;;;;;;;4966931;28;20398;-67
2023/12/26 00:27:48;;;;;;;1.33;0.60;;;;;;;;;;4975197;28;20332;-68
2023/12/26 00:30:13;;;;;;;0.30;0.20;;;;;;;;;;4985581;28;20066;-68
2023/12/26 00:32:38;;;;;;;0.20;0.13;;;;;;;;;;4974459;28;20034;-68
2023/12/26 00:35:04;;;;;;;0.33;0.10;;;;;;;;;;4969624;28;20262;-67
2023/12/26 00:37:31;;;;;;;0.90;0.17;;;;;;;;;;4970901;28;20717;-68
2023/12/26 00:39:56;;;;;;;0.35;0.25;;;;;;;;;;4979937;28;20046;-68
2023/12/26 00:42:22;;;;;;;0.73;0.30;;;;;;;;;;4971375;28;20027;-67
2023/12/26 00:44:47;;;;;;;3.20;0.50;;;;;;;;;;4973056;28;20316;-68
2023/12/26 00:47:12;;;;;;;0.33;0.20;;;;;;;;;;4983125;28;20111;-67
2023/12/26 00:49:37;;;;;;;0.57;0.20;;;;;;;;;;4975075;28;20285;-67
2023/12/26 00:52:02;;;;;;;0.43;0.20;;;;;;;;;;4972408;28;20320;-67
2023/12/26 00:54:27;;;;;;;0.47;0.20;;;;;;;;;;4968078;28;20275;-68
2023/12/26 00:56:53;;;;;;;0.43;0.30;;;;;;;;;;4970283;28;20089;-67
2023/12/26 00:59:18;;;;;;;2.08;0.55;;;;;;;;;;4967161;28;20031;-67
2023/12/26 01:01:43;;;;;;;0.93;0.50;;;;;;;;;;4971467;28;20046;-67
2023/12/26 01:04:08;;;;;;;1.40;0.40;;;;;;;;;;4973305;28;20308;-67
2023/12/26 01:06:33;;;;;;;1.27;0.30;;;;;;;;;;4971045;28;20038;-67
2023/12/26 01:08:59;;;;;;;0.75;0.45;;;;;;;;;;4968003;28;20481;-67
2023/12/26 01:11:24;;;;;;;0.20;0.20;;;;;;;;;;4971513;28;20010;-67
2023/12/26 01:13:49;;;;;;;4.22;0.20;;;;;;;;;;4970527;28;20026;-67
2023/12/26 01:16:14;;;;;;;0.20;0.20;;;;;;;;;;4968642;28;20045;-67
2023/12/26 01:18:39;;;;;;;0.57;0.30;;;;;;;;;;4976687;28;20257;-67
2023/12/26 01:21:05;;;;;;;0.45;0.38;;;;;;;;;;4975383;28;20613;-67
2023/12/26 01:23:31;;;;;;;0.20;0.20;;;;;;;;;;4981744;28;20626;-67
2023/12/26 01:25:56;;;;;;;0.47;0.20;;;;;;;;;;4973818;28;20098;-67
2023/12/26 01:28:21;;;;;;;0.20;0.20;;;;;;;;;;4974349;28;20263;-67
2023/12/26 01:30:46;;;;;;;0.60;0.30;;;;;;;;;;4970594;28;20281;-67
2023/12/26 01:33:12;;;;;;;2.38;0.30;;;;;;;;;;4971054;28;20130;-67
2023/12/26 01:35:37;;;;;;;0.50;0.40;;;;;;;;;;4976392;28;20021;-68
2023/12/26 01:38:02;;;;;;;1.05;0.35;;;;;;;;;;4971694;28;20913;-68
2023/12/26 01:40:28;;;;;;;0.40;0.40;;;;;;;;;;4974833;28;20176;-68
2023/12/26 01:42:53;;;;;;;2.00;0.30;;;;;;;;;;4971645;28;20038;-68
2023/12/26 01:45:18;;;;;;;1.30;0.33;;;;;;;;;;4979142;28;20018;-68
2023/12/26 01:47:45;;;;;;;2.65;0.30;;;;;;;;;;4971130;28;20269;-69
2023/12/26 01:50:10;;;;;;;0.38;0.25;;;;;;;;;;4970833;28;20022;-69
2023/12/26 01:52:38;;;;;;;1.10;0.40;;;;;;;;;;4970737;28;20484;-69
2023/12/26 01:55:04;;;;;;;0.65;0.40;;;;;;;;;;4970482;28;20084;-69
2023/12/26 01:57:32;;;;;;;0.20;0.20;;;;;;;;;;4971862;28;20022;-69
2023/12/26 01:59:57;;;;;;;1.30;0.45;;;;;;;;;;4972614;28;20029;-68
2023/12/26 02:02:22;;;;;;;0.73;0.30;;;;;;;;;;4970887;28;20035;-68
2023/12/26 02:04:48;;;;;;;0.10;0.10;;;;;;;;;;4970383;28;20034;-69
2023/12/26 02:07:13;;;;;;;1.67;0.28;;;;;;;;;;4970040;28;20411;-69
2023/12/26 02:09:38;;;;;;;0.77;0.37;;;;;;;;;;4973221;28;20026;-69
2023/12/26 02:12:04;;;;;;;0.93;0.30;;;;;;;;;;4975405;28;20266;-69
2023/12/26 02:14:29;;;;;;;0.70;0.45;;;;;;;;;;4971283;28;20275;-69
2023/12/26 02:16:55;;;;;;;2.72;0.70;;;;;;;;;;4985145;28;20026;-69
2023/12/26 02:19:20;;;;;;;0.20;0.20;;;;;;;;;;4974807;28;20026;-69
2023/12/26 02:21:46;;;;;;;0.28;0.22;;;;;;;;;;4977289;28;20122;-69
2023/12/26 02:24:11;;;;;;;0.68;0.35;;;;;;;;;;4972906;28;20018;-69
2023/12/26 02:26:38;;;;;;;0.40;0.10;;;;;;;;;;4977398;28;20018;-69
2023/12/26 02:29:05;;;;;;;0.73;0.30;;;;;;;;;;4978874;28;20049;-68
2023/12/26 02:31:31;;;;;;;4.32;0.32;;;;;;;;;;4974886;28;20034;-68
2023/12/26 02:33:56;;;;;;;1.45;0.40;;;;;;;;;;4980859;28;20058;-68
2023/12/26 02:36:22;;;;;;;0.30;0.30;;;;;;;;;;4972045;28;20029;-68
2023/12/26 02:38:47;;;;;;;0.77;0.20;;;;;;;;;;4975705;28;20034;-68
2023/12/26 02:41:12;;;;;;;0.30;0.30;;;;;;;;;;4975974;28;20019;-68
2023/12/26 02:43:37;;;;;;;0.20;0.20;;;;;;;;;;4971766;28;20497;-68
2023/12/26 02:46:02;;;;;;;1.17;0.27;;;;;;;;;;4971129;28;20603;-68
2023/12/26 02:48:27;;;;;;;1.38;0.47;;;;;;;;;;4972695;28;20288;-68
2023/12/26 02:50:53;;;;;;;3.43;0.20;;;;;;;;;;4977032;28;20670;-68
2023/12/26 02:53:18;;;;;;;1.17;0.40;;;;;;;;;;4971797;28;20269;-68
2023/12/26 02:55:44;;;;;;;5.73;0.30;;;;;;;;;;4975593;28;20351;-68
2023/12/26 02:58:09;;;;;;;0.30;0.30;;;;;;;;;;4970747;28;20285;-68
2023/12/26 03:00:34;;;;;;;1.02;0.55;;;;;;;;;;4975025;28;20286;-68
2023/12/26 03:03:00;;;;;;;3.10;0.47;;;;;;;;;;4972462;28;20469;-68
2023/12/26 03:05:25;;;;;;;2.15;0.70;;;;;;;;;;4974011;28;20281;-68
2023/12/26 03:07:50;;;;;;;0.30;0.30;;;;;;;;;;4982291;28;20034;-68
2023/12/26 03:10:15;;;;;;;1.23;0.73;;;;;;;;;;4974794;28;20293;-68
2023/12/26 03:12:41;;;;;;;0.22;0.20;;;;;;;;;;4973159;28;20273;-68
2023/12/26 03:15:07;;;;;;;1.05;0.40;;;;;;;;;;4972087;28;20034;-68
2023/12/26 03:17:32;;;;;;;0.30;0.20;;;;;;;;;;4974668;28;20019;-68
2023/12/26 03:19:57;;;;;;;1.03;0.30;;;;;;;;;;4978483;28;20026;-68
2023/12/26 03:22:22;;;;;;;0.40;0.30;;;;;;;;;;4979765;28;20744;-68
2023/12/26 03:24:48;;;;;;;2.40;0.33;;;;;;;;;;4972764;28;20038;-68
2023/12/26 03:27:14;;;;;;;0.63;0.37;;;;;;;;;;4973052;28;20288;-68
2023/12/26 03:29:39;;;;;;;0.93;0.20;;;;;;;;;;4974043;28;20283;-68
2023/12/26 03:32:04;;;;;;;1.95;0.40;;;;;;;;;;4974101;28;20114;-68
2023/12/26 03:34:30;;;;;;;1.65;0.60;;;;;;;;;;4974212;28;20018;-68
2023/12/26 03:36:55;;;;;;;1.60;0.37;;;;;;;;;;4973940;28;20020;-68
2023/12/26 03:39:20;;;;;;;0.52;0.30;;;;;;;;;;4975507;28;20703;-68
2023/12/26 03:41:48;;;;;;;3.05;0.70;;;;;;;;;;4971593;28;20751;-68
2023/12/26 03:44:14;;;;;;;0.63;0.28;;;;;;;;;;4976566;28;20501;-68
2023/12/26 03:46:39;;;;;;;1.55;0.40;;;;;;;;;;4975206;28;20027;-68
2023/12/26 03:49:04;;;;;;;0.50;0.27;;;;;;;;;;4975789;28;20031;-68
2023/12/26 03:51:29;;;;;;;0.37;0.37;;;;;;;;;;4974907;28;20285;-68
2023/12/26 03:53:55;;;;;;;1.20;0.30;;;;;;;;;;4970747;28;20266;-68
2023/12/26 03:56:20;;;;;;;0.38;0.20;;;;;;;;;;4974182;28;20019;-68
2023/12/26 03:58:45;;;;;;;1.80;0.30;;;;;;;;;;4964803;28;20022;-69
2023/12/26 04:01:11;;;;;;;4.68;0.60;;;;;;;;;;4978243;28;20270;-69
2023/12/26 04:03:36;;;;;;;0.85;0.20;;;;;;;;;;4980906;28;20027;-69
2023/12/26 04:06:02;;;;;;;1.10;0.43;;;;;;;;;;4973758;28;20034;-69
2023/12/26 04:08:27;;;;;;;0.60;0.30;;;;;;;;;;4972996;28;20274;-69
2023/12/26 04:10:53;;;;;;;1.13;0.40;;;;;;;;;;4970029;28;20030;-69
2023/12/26 04:13:18;;;;;;;1.08;0.50;;;;;;;;;;4982429;28;20395;-69
2023/12/26 04:15:44;;;;;;;4.43;1.30;;;;;;;;;;4984075;28;20026;-69
2023/12/26 04:18:09;;;;;;;4.55;2.08;;;;;;;;;;4975164;28;20349;-68
2023/12/26 04:20:34;;;;;;;4.10;1.88;;;;;;;;;;4988603;28;20027;-68
2023/12/26 04:22:59;;;;;;;8.93;1.53;;;;;;;;;;4982348;28;20031;-68
2023/12/26 04:25:24;;;;;;;0.95;0.60;;;;;;;;;;4978176;28;20675;-69
2023/12/26 04:27:50;;;;;;;0.77;0.57;;;;;;;;;;4986037;28;20053;-70
2023/12/26 04:30:15;;;;;;;2.78;0.50;;;;;;;;;;4976797;28;20286;-69
2023/12/26 04:32:40;;;;;;;3.08;0.40;;;;;;;;;;4980715;28;20043;-69
2023/12/26 04:35:06;;;;;;;0.20;0.20;;;;;;;;;;4973990;28;20023;-69
2023/12/26 04:37:31;;;;;;;4.63;0.80;;;;;;;;;;4977253;28;20290;-69
2023/12/26 04:39:56;;;;;;;1.30;0.80;;;;;;;;;;4981235;28;20049;-69
2023/12/26 04:42:21;;;;;;;2.87;0.60;;;;;;;;;;4980269;28;20273;-69
2023/12/26 04:44:47;;;;;;;1.45;0.65;;;;;;;;;;4974623;28;20357;-69
2023/12/26 04:47:12;;;;;;;1.90;0.93;;;;;;;;;;4975523;28;20035;-68
2023/12/26 04:49:37;;;;;;;2.97;0.57;;;;;;;;;;4976337;28;20290;-68
2023/12/26 04:52:02;;;;;;;5.25;0.50;;;;;;;;;;4977938;28;20308;-68
2023/12/26 04:54:27;;;;;;;0.95;0.52;;;;;;;;;;4981364;28;20041;-68
2023/12/26 04:56:53;;;;;;;5.10;0.67;;;;;;;;;;4973672;28;20050;-68
2023/12/26 04:59:18;;;;;;;4.20;0.80;;;;;;;;;;4977013;28;20343;-68
2023/12/26 05:01:43;;;;;;;3.83;0.60;;;;;;;;;;4981947;28;20294;-68
2023/12/26 05:04:11;;;;;;;0.57;0.30;;;;;;;;;;4971981;28;20270;-68
2023/12/26 05:06:37;;;;;;;0.95;0.47;;;;;;;;;;4978586;28;20273;-68
2023/12/26 05:09:02;;;;;;;1.85;0.43;;;;;;;;;;4974697;28;20045;-68
2023/12/26 05:11:27;;;;;;;3.63;0.43;;;;;;;;;;4983444;28;20026;-68
2023/12/26 05:13:52;;;;;;;4.80;0.60;;;;;;;;;;4973847;28;20496;-68
2023/12/26 05:16:18;;;;;;;13.48;1.95;;;;;;;;;;4967480;28;20377;-68
2023/12/26 05:18:43;;;;;;;6.47;0.82;;;;;;;;;;4979876;28;20071;-68
2023/12/26 05:21:18;;;;;;;5.15;1.35;;;;;;;;;;4977440;28;20019;-68
2023/12/26 05:23:43;;;;;;;5.68;0.70;;;;;;;;;;4986310;28;20033;-68
2023/12/26 05:26:08;;;;;;;8.90;0.50;;;;;;;;;;4973787;28;20023;-68
2023/12/26 05:28:33;;;;;;;8.60;1.20;;;;;;;;;;4979247;28;20696;-68
2023/12/26 05:31:00;;;;;;;1.63;0.60;;;;;;;;;;4976577;28;20270;-68
2023/12/26 05:33:25;;;;;;;4.03;0.85;;;;;;;;;;4979949;28;20266;-69
2023/12/26 05:35:51;;;;;;;0.83;0.60;;;;;;;;;;4973229;28;20527;-69
2023/12/26 05:38:16;;;;;;;0.77;0.45;;;;;;;;;;4979306;28;20177;-69
2023/12/26 05:40:41;;;;;;;4.13;1.10;;;;;;;;;;4982334;28;20037;-69
2023/12/26 05:43:06;;;;;;;2.27;0.57;;;;;;;;;;4982929;28;20415;-69
2023/12/26 05:45:32;;;;;;;3.23;1.00;;;;;;;;;;4976940;28;20258;-69
2023/12/26 05:47:57;;;;;;;4.18;0.98;;;;;;;;;;4979997;28;20851;-69
2023/12/26 05:50:22;;;;;;;4.90;1.00;;;;;;;;;;4972846;28;20469;-69
2023/12/26 05:52:47;;;;;;;11.13;1.13;;;;;;;;;;4983681;28;20535;-69
2023/12/26 05:55:12;;;;;;;1.30;0.50;;;;;;;;;;4976277;28;20038;-68
2023/12/26 05:57:38;;;;;;;4.57;0.93;;;;;;;;;;4973150;28;20702;-68
2023/12/26 06:00:04;;;;;;;5.50;1.95;;;;;;;;;;4980100;28;20301;-68
2023/12/26 06:02:29;;;;;;;4.40;1.10;;;;;;;;;;4977410;28;20069;-68
2023/12/26 06:04:54;;;;;;;3.53;1.08;;;;;;;;;;4969702;28;20377;-68
2023/12/26 06:07:20;;;;;;;3.57;1.43;;;;;;;;;;4982829;28;20401;-68
2023/12/26 06:09:45;;;;;;;3.17;0.82;;;;;;;;;;4983280;28;20351;-69
2023/12/26 06:12:10;;;;;;;4.97;1.63;;;;;;;;;;4978751;28;20505;-69
2023/12/26 06:14:35;;;;;;;4.87;1.70;;;;;;;;;;4979392;28;20265;-69
2023/12/26 06:17:01;;;;;;;6.90;1.80;;;;;;;;;;4977406;28;20744;-69
2023/12/26 06:19:26;;;;;;;4.82;1.80;;;;;;;;;;4978861;28;20289;-69
2023/12/26 06:21:51;;;;;;;3.42;1.42;;;;;;;;;;4980227;28;20023;-69
2023/12/26 06:24:17;;;;;;;3.85;1.20;;;;;;;;;;4972258;28;20034;-69
2023/12/26 06:26:42;;;;;;;7.67;1.40;;;;;;;;;;4983025;28;20038;-69
2023/12/26 06:29:07;;;;;;;8.35;2.40;;;;;;;;;;4978616;28;20283;-69
2023/12/26 06:31:33;;;;;;;1.43;0.93;;;;;;;;;;4970477;28;20053;-69
2023/12/26 06:33:58;;;;;;;2.40;1.03;;;;;;;;;;4979817;28;20282;-69
2023/12/26 06:36:27;;;;;;;1.90;0.73;;;;;;;;;;4977657;28;20281;-69
2023/12/26 06:38:53;;;;;;;4.53;1.20;;;;;;;;;;4971044;28;20301;-69
2023/12/26 06:41:19;;;;;;;7.45;1.63;;;;;;;;;;4976815;28;20051;-69
2023/12/26 06:43:44;;;;;;;3.50;1.17;;;;;;;;;;4979001;28;20530;-69
2023/12/26 06:46:09;;;;;;;2.80;1.50;;;;;;;;;;4976758;28;20262;-69
2023/12/26 06:48:35;;;;;;;4.67;1.27;;;;;;;;;;4977705;28;20019;-69
2023/12/26 06:51:03;;;;;;;4.00;1.05;;;;;;;;;;4988504;28;20795;-69
2023/12/26 06:53:28;;;;;;;5.95;1.00;;;;;;;;;;4985238;28;20031;-69
2023/12/26 06:55:53;;;;;;;8.27;2.33;;;;;;;;;;5004704;28;20030;-69
2023/12/26 06:58:18;;;;;;;9.85;0.95;;;;;;;;;;4999702;28;20270;-69
2023/12/26 07:00:43;;;;;;;5.47;1.10;;;;;;;;;;4986602;28;20028;-69
2023/12/26 07:03:09;;;;;;;4.37;1.07;;;;;;;;;;4972619;28;20092;-69
2023/12/26 07:05:34;;;;;;;2.25;0.80;;;;;;;;;;4987580;28;20278;-69
2023/12/26 07:07:59;;;;;;;5.20;1.00;;;;;;;;;;4981882;28;20032;-68
2023/12/26 07:10:24;;;;;;;7.80;1.00;;;;;;;;;;4989559;28;20021;-68
2023/12/26 07:12:49;;;;;;;3.47;0.57;;;;;;;;;;4983687;28;20372;-68
2023/12/26 07:15:15;;;;;;;9.10;1.37;;;;;;;;;;4982190;28;20466;-69
2023/12/26 07:17:40;;;;;;;1.13;0.52;;;;;;;;;;4972972;28;20281;-69
2023/12/26 07:20:08;;;;;;;9.73;1.10;;;;;;;;;;4999110;28;20023;-69
2023/12/26 07:22:33;;;;;;;6.60;1.25;;;;;;;;;;4972091;28;20030;-69
2023/12/26 07:24:58;;;;;;;3.07;1.10;;;;;;;;;;4980066;28;20041;-69
2023/12/26 07:27:24;;;;;;;8.67;1.93;;;;;;;;;;4975738;28;20402;-69
2023/12/26 07:29:49;;;;;;;5.13;0.93;;;;;;;;;;4979022;28;20282;-69
2023/12/26 07:32:14;;;;;;;6.87;1.97;;;;;;;;;;4975011;28;20073;-69
2023/12/26 07:34:41;;;;;;;1.25;1.10;;;;;;;;;;4988577;28;20465;-69
2023/12/26 07:37:07;;;;;;;1.73;0.63;;;;;;;;;;4965196;28;20393;-69
2023/12/26 07:39:32;;;;;;;7.47;0.95;;;;;;;;;;4969514;28;20070;-69
2023/12/26 07:41:59;;;;;;;5.03;0.90;;;;;;;;;;4976603;28;20064;-68
2023/12/26 07:44:24;;;;;;;6.07;1.30;;;;;;;;;;4974439;28;20281;-69
2023/12/26 07:46:49;;;;;;;4.13;1.30;;;;;;;;;;4991461;28;20031;-69
2023/12/26 07:49:14;;;;;;;4.25;1.60;;;;;;;;;;4971076;28;20799;-69
2023/12/26 07:51:39;;;;;;;2.60;1.00;;;;;;;;;;4973314;28;20622;-69
2023/12/26 07:54:05;;;;;;;6.63;1.20;;;;;;;;;;4973043;28;20289;-69
2023/12/26 07:56:31;;;;;;;5.45;0.75;;;;;;;;;;4976309;28;22026;-69
2023/12/26 07:58:56;;;;;;;3.95;1.67;;;;;;;;;;4969391;28;20384;-69
2023/12/26 08:01:24;;;;;;;10.97;1.37;;;;;;;;;;4971475;28;20033;-69
2023/12/26 08:03:49;;;;;;;8.80;0.90;;;;;;;;;;4962057;28;20258;-69
2023/12/26 08:06:14;;;;;;;2.45;0.98;;;;;;;;;;4970457;28;20033;-69
2023/12/26 08:08:39;;;;;;;3.60;1.40;;;;;;;;;;4970484;28;20077;-68
2023/12/26 08:11:05;;;;;;;5.35;0.75;;;;;;;;;;4976196;28;20380;-69
2023/12/26 08:13:30;;;;;;;4.82;0.80;;;;;;;;;;5002852;28;20122;-69
2023/12/26 08:15:55;;;;;;;3.93;0.90;;;;;;;;;;4992393;28;20021;-69
2023/12/26 08:18:20;;;;;;;3.10;1.95;;;;;;;;;;4991459;28;20772;-69
2023/12/26 08:20:45;;;;;;;8.57;1.70;;;;;;;;;;4976471;28;20508;-69
2023/12/26 08:23:11;;;;;;;5.20;0.97;;;;;;;;;;4974545;28;20504;-69
2023/12/26 08:25:37;;;;;;;7.57;1.33;;;;;;;;;;4977564;28;20258;-69
2023/12/26 08:28:02;;;;;;;6.97;1.45;;;;;;;;;;4978033;28;20034;-69
2023/12/26 08:30:28;;;;;;;9.32;1.58;;;;;;;;;;4974926;28;20027;-69
2023/12/26 08:32:53;;;;;;;5.30;0.90;;;;;;;;;;4977353;28;20026;-68
2023/12/26 08:35:18;;;;;;;6.95;1.77;;;;;;;;;;4968385;28;20269;-68
2023/12/26 08:37:43;;;;;;;5.67;1.60;;;;;;;;;;4969110;28;20092;-68
2023/12/26 08:40:08;;;;;;;11.40;2.07;;;;;;;;;;4969369;28;20220;-68
2023/12/26 08:42:33;;;;;;;8.43;2.03;;;;;;;;;;4969944;28;20278;-68
2023/12/26 08:44:59;;;;;;;13.80;1.63;;;;;;;;;;4965035;28;20077;-68
2023/12/26 08:47:24;;;;;;;3.57;1.53;;;;;;;;;;4963957;28;20400;-67
2023/12/26 08:49:49;;;;;;;4.00;1.50;;;;;;;;;;4973731;28;20309;-67
2023/12/26 08:52:14;;;;;;;5.57;2.50;;;;;;;;;;5007708;28;20341;-67
2023/12/26 08:54:42;;;;;;;6.03;1.38;;;;;;;;;;4977827;28;20274;-67
2023/12/26 08:57:07;;;;;;;5.35;1.35;;;;;;;;;;4975026;28;20022;-67
2023/12/26 08:59:32;;;;;;;4.95;1.00;;;;;;;;;;4974659;28;20053;-67
2023/12/26 09:01:57;;;;;;;5.43;1.53;;;;;;;;;;4968862;28;20029;-68
2023/12/26 09:04:26;;;;;;;8.02;1.55;;;;;;;;;;4969697;28;20622;-68
2023/12/26 09:06:51;;;;;;;3.97;1.08;;;;;;;;;;4979408;28;20473;-67
2023/12/26 09:09:17;;;;;;;3.25;1.70;;;;;;;;;;4972899;28;20030;-67
2023/12/26 09:11:42;;;;;;;6.25;1.05;;;;;;;;;;4977804;28;20812;-67
2023/12/26 09:14:07;;;;;;;15.57;2.20;;;;;;;;;;4985901;28;20057;-67
2023/12/26 09:16:32;;;;;;;9.38;2.25;;;;;;;;;;4972595;28;20269;-67
2023/12/26 09:18:57;;;;;;;5.43;1.73;;;;;;;;;;4972049;28;20055;-68
2023/12/26 09:21:23;;;;;;;9.80;2.33;;;;;;;;;;4974664;28;20269;-68
2023/12/26 09:23:48;;;;;;;15.17;2.70;;;;;;;;;;4977065;28;20736;-68
2023/12/26 09:26:14;;;;;;;13.38;2.22;;;;;;;;;;4971820;28;20358;-68
2023/12/26 09:28:39;;;;;;;13.52;3.08;;;;;;;;;;4977475;28;20027;-68
2023/12/26 09:31:04;;;;;;;11.05;1.85;;;;;;;;;;4977439;28;20049;-68
2023/12/26 09:33:30;;;;;;;14.63;2.95;;;;;;;;;;4987086;28;20106;-68
2023/12/26 09:35:55;;;;;;;25.57;6.13;;;;;;;;;;4976345;28;20061;-68
2023/12/26 09:38:20;;;;;;;14.25;2.80;;;;;;;;;;4978176;28;20929;-67
2023/12/26 09:40:47;;;;;;;6.72;1.98;;;;;;;;;;4987706;28;20058;-67
2023/12/26 09:43:14;;;;;;;12.65;2.20;;;;;;;;;;4969314;28;20553;-68
2023/12/26 09:45:40;;;;;;;12.35;2.45;;;;;;;;;;4977802;28;20563;-68
2023/12/26 09:48:05;;;;;;;7.18;1.90;;;;;;;;;;4978693;28;20038;-68
2023/12/26 09:50:30;;;;;;;11.13;2.83;;;;;;;;;;4974671;28;20026;-68
2023/12/26 09:52:59;;;;;;;11.90;2.50;;;;;;;;;;4976236;28;20034;-68
2023/12/26 09:55:25;;;;;;;9.82;2.80;;;;;;;;;;4973132;28;20270;-67
2023/12/26 09:57:50;;;;;;;6.10;1.73;;;;;;;;;;4963244;28;20605;-68
2023/12/26 10:00:16;;;;;;;11.05;1.98;;;;;;;;;;4971039;28;20117;-68
2023/12/26 10:02:41;;;;;;;5.57;1.90;;;;;;;;;;4992586;28;20195;-68
2023/12/26 10:05:07;;;;;;;15.48;2.58;;;;;;;;;;4969486;28;20037;-68
2023/12/26 10:07:32;;;;;;;16.13;2.65;;;;;;;;;;4988845;28;20022;-67
2023/12/26 10:09:57;;;;;;;13.05;2.25;;;;;;;;;;4970700;28;20045;-67
2023/12/26 10:12:27;;;;;;;7.22;1.90;;;;;;;;;;4976314;28;20023;-67
2023/12/26 10:14:58;;;;;;;11.45;3.20;;;;;;;;;;4973763;28;20030;-68
2023/12/26 10:17:24;;;;;;;8.00;1.92;;;;;;;;;;4976518;28;20104;-68
2023/12/26 10:19:49;;;;;;;12.23;3.40;;;;;;;;;;4990301;28;20030;-68
2023/12/26 10:22:14;;;;;;;12.20;3.05;;;;;;;;;;4967669;28;20768;-68
2023/12/26 10:24:39;;;;;;;11.00;2.40;;;;;;;;;;4974938;28;20023;-68
2023/12/26 10:27:04;;;;;;;13.33;2.63;;;;;;;;;;4979806;28;20657;-68
2023/12/26 10:29:30;;;;;;;11.05;3.05;;;;;;;;;;4975301;28;20294;-68
2023/12/26 10:31:59;;;;;;;16.50;2.15;;;;;;;;;;4975086;28;20031;-68
2023/12/26 10:34:29;;;;;;;9.77;1.70;;;;;;;;;;4992142;28;20111;-68
2023/12/26 10:36:55;;;;;;;7.78;1.67;;;;;;;;;;4977944;28;20443;-68
2023/12/26 10:39:20;;;;;;;10.07;3.03;;;;;;;;;;4973898;28;20034;-68
2023/12/26 10:41:47;;;;;;;12.60;2.33;;;;;;;;;;4981287;28;20402;-68
2023/12/26 10:44:13;;;;;;;8.10;2.08;;;;;;;;;;4970159;28;20018;-68
2023/12/26 10:46:39;;;;;;;8.52;1.90;;;;;;;;;;4967845;28;20581;-68
2023/12/26 10:49:05;;;;;;;5.32;1.60;;;;;;;;;;4967721;28;20033;-68
2023/12/26 10:51:31;;;;;;;11.23;2.63;;;;;;;;;;4969328;28;20136;-68
2023/12/26 10:54:07;;;;;;;11.25;2.15;;;;;;;;;;4988731;28;20464;-68
2023/12/26 10:56:32;;;;;;;11.98;2.08;;;;;;;;;;5007938;28;20871;-68
2023/12/26 10:58:58;;;;;;;15.13;1.98;;;;;;;;;;4999085;28;20085;-68
2023/12/26 11:01:23;;;;;;;12.05;1.30;;;;;;;;;;4969562;28;20019;-68
2023/12/26 11:03:48;;;;;;;10.82;1.48;;;;;;;;;;4975356;28;20027;-68
2023/12/26 11:06:14;;;;;;;9.82;1.63;;;;;;;;;;4972640;28;20401;-68
2023/12/26 11:08:39;;;;;;;9.10;2.88;;;;;;;;;;4974894;28;20034;-68
2023/12/26 11:11:04;;;;;;;15.47;1.47;;;;;;;;;;4969487;28;20022;-68
2023/12/26 11:13:29;;;;;;;10.67;2.17;;;;;;;;;;4960414;28;20288;-68
2023/12/26 11:15:54;;;;;;;12.63;1.90;;;;;;;;;;4962482;28;20274;-68
2023/12/26 11:18:20;;;;;;;11.20;2.42;;;;;;;;;;4962921;28;20263;-68
2023/12/26 11:20:46;;;;;;;9.85;2.13;;;;;;;;;;4967576;28;20046;-68
2023/12/26 11:23:11;;;;;;;8.02;2.03;;;;;;;;;;4965898;28;20027;-68
2023/12/26 11:25:36;;;;;;;16.20;2.15;;;;;;;;;;4966196;28;20129;-69
2023/12/26 11:28:01;;;;;;;8.55;1.40;;;;;;;;;;4967501;28;20031;-68
2023/12/26 11:30:27;;;;;;;9.52;1.60;;;;;;;;;;4972166;28;20027;-68
2023/12/26 11:32:52;;;;;;;17.25;2.47;;;;;;;;;;4971915;28;20041;-68
2023/12/26 11:35:18;;;;;;;8.80;1.77;;;;;;;;;;4967818;28;20027;-68
2023/12/26 11:37:43;;;;;;;11.07;1.48;;;;;;;;;;4962436;28;20026;-68
2023/12/26 11:40:08;;;;;;;13.38;2.30;;;;;;;;;;4962056;28;20080;-68
2023/12/26 11:42:34;;;;;;;12.30;1.48;;;;;;;;;;4964983;28;20038;-68
2023/12/26 11:44:59;;;;;;;16.52;2.20;;;;;;;;;;4966271;28;20490;-68
2023/12/26 11:47:25;;;;;;;14.20;2.15;;;;;;;;;;4965571;28;20019;-68
2023/12/26 11:49:50;;;;;;;13.25;2.55;;;;;;;;;;4967263;28;20072;-68
2023/12/26 11:52:15;;;;;;;14.45;2.40;;;;;;;;;;4968618;28;20027;-68
2023/12/26 11:54:40;;;;;;;11.40;1.38;;;;;;;;;;4968860;28;20068;-68
2023/12/26 11:57:05;;;;;;;12.73;2.00;;;;;;;;;;4969873;28;20079;-68
2023/12/26 11:59:31;;;;;;;11.40;1.87;;;;;;;;;;4974078;28;20030;-68
2023/12/26 12:01:56;;;;;;;10.73;2.67;;;;;;;;;;4976122;28;20366;-68
2023/12/26 12:04:21;;;;;;;11.60;1.97;;;;;;;;;;4975039;28;20022;-68
2023/12/26 12:07:05;;;;;;;8.13;1.13;;;;;;;;;;4967559;28;20273;-68
2023/12/26 12:09:30;;;;;;;6.07;1.40;;;;;;;;;;4968618;28;20286;-68
2023/12/26 12:11:55;;;;;;;9.93;1.43;;;;;;;;;;4969130;28;20023;-68
2023/12/26 12:14:21;;;;;;;16.03;2.73;;;;;;;;;;4966927;28;20297;-68
2023/12/26 12:16:46;;;;;;;8.87;3.37;;;;;;;;;;4971230;28;20286;-68
2023/12/26 12:19:13;;;;;;;9.77;1.20;;;;;;;;;;4968329;28;20305;-68
2023/12/26 12:21:39;;;;;;;8.95;1.98;;;;;;;;;;4971615;28;20312;-67
2023/12/26 12:24:04;;;;;;;19.23;2.28;;;;;;;;;;4971902;28;20043;-68
2023/12/26 12:26:58;;;;;;;17.88;1.55;;;;;;;;;;4971553;28;20105;-68
2023/12/26 12:29:23;;;;;;;11.73;1.85;;;;;;;;;;4969944;28;20031;-68
2023/12/26 12:32:08;;;;;;;13.87;1.83;;;;;;;;;;4970701;28;20030;-68
2023/12/26 12:34:33;;;;;;;13.30;1.40;;;;;;;;;;4971257;28;20270;-68
2023/12/26 12:36:58;;;;;;;5.20;1.40;;;;;;;;;;4964951;28;20026;-67
2023/12/26 12:39:23;;;;;;;19.23;1.70;;;;;;;;;;4971776;28;20317;-68
2023/12/26 12:41:49;;;;;;;10.27;1.37;;;;;;;;;;4971206;28;20269;-68
2023/12/26 12:44:14;;;;;;;14.77;2.15;;;;;;;;;;4969120;28;20278;-69
2023/12/26 12:46:39;;;;;;;13.63;2.70;;;;;;;;;;4972787;28;20023;-69
2023/12/26 12:49:04;;;;;;;20.80;2.00;;;;;;;;;;4976407;28;20605;-69
2023/12/26 12:51:29;;;;;;;22.05;3.33;;;;;;;;;;4979084;28;20352;-69
2023/12/26 12:53:55;;;;;;;6.80;1.80;;;;;;;;;;4992942;28;20100;-69
2023/12/26 12:56:20;;;;;;;15.43;1.70;;;;;;;;;;4971384;28;20259;-70
2023/12/26 12:58:45;;;;;;;14.95;1.80;;;;;;;;;;4973964;28;20289;-69
2023/12/26 13:07:25;;;;;;;9.75;1.67;;;;;;;;;;3084155;26;20078;-67
2023/12/26 13:09:26;;;;;;;11.73;2.33;;;;;;;;;;4950186;28;20035;-67
2023/12/26 13:11:51;;;;;;;16.08;3.30;;;;;;;;;;4935941;28;20023;-67
2023/12/26 13:14:16;;;;;;;12.53;2.60;;;;;;;;;;4931327;28;20412;-67
2023/12/26 13:16:41;;;;;;;14.40;1.83;;;;;;;;;;4931755;28;20298;-67
2023/12/26 13:19:07;;;;;;;16.17;2.35;;;;;;;;;;4931491;28;20066;-67
2023/12/26 13:21:32;;;;;;;10.20;1.40;;;;;;;;;;4935827;28;20566;-67
2023/12/26 13:23:57;;;;;;;8.82;1.75;;;;;;;;;;4934577;28;20108;-67
2023/12/26 13:26:22;;;;;;;13.70;1.63;;;;;;;;;;4931895;28;20077;-67
2023/12/26 13:28:47;;;;;;;16.20;2.20;;;;;;;;;;4929308;28;20275;-66
2023/12/26 13:31:12;;;;;;;15.73;1.70;;;;;;;;;;4932177;28;20311;-66
2023/12/26 13:33:38;;;;;;;8.07;1.90;;;;;;;;;;4937227;28;20258;-67
2023/12/26 13:36:03;;;;;;;15.57;3.40;;;;;;;;;;4930461;28;20674;-67
2023/12/26 13:38:28;;;;;;;16.30;2.22;;;;;;;;;;4933797;28;20020;-67
2023/12/26 13:40:53;;;;;;;14.87;1.63;;;;;;;;;;4935457;28;20398;-67
2023/12/26 13:43:18;;;;;;;17.35;2.70;;;;;;;;;;4934268;28;20279;-68
2023/12/26 13:45:44;;;;;;;14.70;2.10;;;;;;;;;;4936279;28;20054;-68
2023/12/26 13:48:09;;;;;;;12.45;1.67;;;;;;;;;;4933939;28;20746;-68
2023/12/26 13:50:34;;;;;;;9.63;1.30;;;;;;;;;;4935763;28;20032;-68
2023/12/26 13:52:59;;;;;;;11.97;1.90;;;;;;;;;;4932024;28;20319;-68
2023/12/26 13:55:24;;;;;;;12.37;1.50;;;;;;;;;;4935426;28;20814;-68
2023/12/26 13:57:49;;;;;;;15.97;3.13;;;;;;;;;;4932652;28;20353;-68
2023/12/26 14:00:15;;;;;;;22.63;2.08;;;;;;;;;;4935611;28;20313;-69
2023/12/26 14:02:40;;;;;;;35.90;6.23;;;;;;;;;;4936498;28;20043;-68
2023/12/26 14:05:05;;;;;;;10.82;1.90;;;;;;;;;;4933918;28;20310;-68
2023/12/26 14:07:31;;;;;;;14.18;2.65;;;;;;;;;;4934756;28;20028;-68
2023/12/26 14:09:56;;;;;;;18.77;2.45;;;;;;;;;;4935263;28;20054;-68
2023/12/26 14:12:22;;;;;;;11.68;2.20;;;;;;;;;;4931258;28;20027;-68
2023/12/26 14:14:47;;;;;;;14.63;1.97;;;;;;;;;;4935126;28;20500;-68
2023/12/26 14:17:14;;;;;;;20.27;2.37;;;;;;;;;;4933512;28;20271;-69
2023/12/26 14:19:40;;;;;;;14.95;2.53;;;;;;;;;;4932291;28;20290;-69
2023/12/26 14:22:05;;;;;;;10.60;1.83;;;;;;;;;;4953336;28;20487;-69
2023/12/26 14:24:30;;;;;;;10.88;1.77;;;;;;;;;;4934680;28;20507;-69
2023/12/26 14:26:55;;;;;;;7.00;1.33;;;;;;;;;;4920849;28;20031;-69
2023/12/26 14:29:20;;;;;;;26.33;2.83;;;;;;;;;;4928475;28;20315;-68
2023/12/26 14:31:46;;;;;;;26.33;3.00;;;;;;;;;;4932108;28;20483;-70
2023/12/26 14:34:12;;;;;;;14.13;1.70;;;;;;;;;;4932426;28;20032;-69